sensor_id;sensor_type;location;lat;lon;timestamp;temperature;humidity
74968;SHT30;63523;51.880;12.630;2023-05-14T00:01:27;12.04;71.69
74968;SHT30;63523;51.880;12.630;2023-05-14T00:03:53;11.95;72.18
74968;SHT30;63523;51.880;12.630;2023-05-14T00:06:18;11.88;72.63
74968;SHT30;63523;51.880;12.630;2023-05-14T00:08:43;11.83;73.10
74968;SHT30;63523;51.880;12.630;2023-05-14T00:11:08;11.78;72.97
74968;SHT30;63523;51.880;12.630;2023-05-14T00:13:34;11.83;74.04
74968;SHT30;63523;51.880;12.630;2023-05-14T00:16:00;11.88;74.12
74968;SHT30;63523;51.880;12.630;2023-05-14T00:18:25;11.97;74.65
74968;SHT30;63523;51.880;12.630;2023-05-14T00:20:51;12.04;74.34
74968;SHT30;63523;51.880;12.630;2023-05-14T00:23:21;12.08;72.76
74968;SHT30;63523;51.880;12.630;2023-05-14T00:25:47;12.18;71.33
74968;SHT30;63523;51.880;12.630;2023-05-14T00:28:12;12.31;69.84
74968;SHT30;63523;51.880;12.630;2023-05-14T00:30:37;12.46;69.10
74968;SHT30;63523;51.880;12.630;2023-05-14T00:33:04;12.60;70.47
74968;SHT30;63523;51.880;12.630;2023-05-14T00:35:29;12.60;71.01
74968;SHT30;63523;51.880;12.630;2023-05-14T00:37:54;12.59;71.39
74968;SHT30;63523;51.880;12.630;2023-05-14T00:40:23;12.55;71.92
74968;SHT30;63523;51.880;12.630;2023-05-14T00:42:49;12.56;72.01
74968;SHT30;63523;51.880;12.630;2023-05-14T00:45:14;12.57;71.75
74968;SHT30;63523;51.880;12.630;2023-05-14T00:47:40;12.61;71.63
74968;SHT30;63523;51.880;12.630;2023-05-14T00:50:05;12.67;71.81
74968;SHT30;63523;51.880;12.630;2023-05-14T00:52:31;12.72;72.01
74968;SHT30;63523;51.880;12.630;2023-05-14T00:54:57;12.75;73.63
74968;SHT30;63523;51.880;12.630;2023-05-14T00:57:23;12.66;74.29
74968;SHT30;63523;51.880;12.630;2023-05-14T00:59:48;12.59;74.94
74968;SHT30;63523;51.880;12.630;2023-05-14T01:02:13;12.53;75.50
74968;SHT30;63523;51.880;12.630;2023-05-14T01:04:39;12.46;75.67
74968;SHT30;63523;51.880;12.630;2023-05-14T01:07:32;12.38;76.19
74968;SHT30;63523;51.880;12.630;2023-05-14T01:10:04;12.31;76.40
74968;SHT30;63523;51.880;12.630;2023-05-14T01:12:39;12.28;77.05
74968;SHT30;63523;51.880;12.630;2023-05-14T01:15:18;12.26;77.04
74968;SHT30;63523;51.880;12.630;2023-05-14T01:18:09;12.21;77.22
74968;SHT30;63523;51.880;12.630;2023-05-14T01:20:34;12.20;77.54
74968;SHT30;63523;51.880;12.630;2023-05-14T01:23:00;12.20;78.77
74968;SHT30;63523;51.880;12.630;2023-05-14T01:25:26;12.24;79.46
74968;SHT30;63523;51.880;12.630;2023-05-14T01:27:59;12.22;79.71
74968;SHT30;63523;51.880;12.630;2023-05-14T01:31:07;12.32;80.08
74968;SHT30;63523;51.880;12.630;2023-05-14T01:33:34;12.36;80.49
74968;SHT30;63523;51.880;12.630;2023-05-14T01:36:01;12.42;79.98
74968;SHT30;63523;51.880;12.630;2023-05-14T01:38:27;12.39;79.64
74968;SHT30;63523;51.880;12.630;2023-05-14T01:40:56;12.42;79.99
74968;SHT30;63523;51.880;12.630;2023-05-14T01:43:22;12.45;79.91
74968;SHT30;63523;51.880;12.630;2023-05-14T01:45:47;12.46;79.81
74968;SHT30;63523;51.880;12.630;2023-05-14T01:48:13;12.46;79.48
74968;SHT30;63523;51.880;12.630;2023-05-14T01:50:39;12.46;78.81
74968;SHT30;63523;51.880;12.630;2023-05-14T01:53:04;12.46;78.17
74968;SHT30;63523;51.880;12.630;2023-05-14T01:55:29;12.46;77.50
74968;SHT30;63523;51.880;12.630;2023-05-14T01:57:55;12.48;78.77
74968;SHT30;63523;51.880;12.630;2023-05-14T02:00:22;12.48;78.67
74968;SHT30;63523;51.880;12.630;2023-05-14T02:02:48;12.43;78.19
74968;SHT30;63523;51.880;12.630;2023-05-14T02:05:13;12.35;77.55
74968;SHT30;63523;51.880;12.630;2023-05-14T02:07:38;12.31;77.79
74968;SHT30;63523;51.880;12.630;2023-05-14T02:10:04;12.29;78.44
74968;SHT30;63523;51.880;12.630;2023-05-14T02:12:29;12.24;78.34
74968;SHT30;63523;51.880;12.630;2023-05-14T02:14:55;12.20;77.45
74968;SHT30;63523;51.880;12.630;2023-05-14T02:17:20;12.17;77.04
74968;SHT30;63523;51.880;12.630;2023-05-14T02:19:46;12.18;77.60
74968;SHT30;63523;51.880;12.630;2023-05-14T02:22:11;12.15;76.92
74968;SHT30;63523;51.880;12.630;2023-05-14T02:24:37;12.12;76.18
74968;SHT30;63523;51.880;12.630;2023-05-14T02:27:02;12.10;74.75
74968;SHT30;63523;51.880;12.630;2023-05-14T02:29:28;12.06;76.10
74968;SHT30;63523;51.880;12.630;2023-05-14T02:31:53;12.11;76.10
74968;SHT30;63523;51.880;12.630;2023-05-14T02:34:18;12.12;75.91
74968;SHT30;63523;51.880;12.630;2023-05-14T02:36:43;12.11;76.06
74968;SHT30;63523;51.880;12.630;2023-05-14T02:39:09;12.11;76.25
74968;SHT30;63523;51.880;12.630;2023-05-14T02:41:34;12.12;76.77
74968;SHT30;63523;51.880;12.630;2023-05-14T02:44:00;12.12;77.56
74968;SHT30;63523;51.880;12.630;2023-05-14T02:46:25;12.17;78.17
74968;SHT30;63523;51.880;12.630;2023-05-14T02:48:50;12.20;78.55
74968;SHT30;63523;51.880;12.630;2023-05-14T02:51:19;12.20;78.77
74968;SHT30;63523;51.880;12.630;2023-05-14T02:53:44;12.20;78.17
74968;SHT30;63523;51.880;12.630;2023-05-14T02:56:09;12.20;78.57
74968;SHT30;63523;51.880;12.630;2023-05-14T02:58:34;12.21;78.07
74968;SHT30;63523;51.880;12.630;2023-05-14T03:01:00;12.22;77.27
74968;SHT30;63523;51.880;12.630;2023-05-14T03:03:25;12.25;76.62
74968;SHT30;63523;51.880;12.630;2023-05-14T03:05:50;12.29;75.99
74968;SHT30;63523;51.880;12.630;2023-05-14T03:08:15;12.33;75.68
74968;SHT30;63523;51.880;12.630;2023-05-14T03:10:41;12.39;75.22
74968;SHT30;63523;51.880;12.630;2023-05-14T03:13:06;12.42;74.93
74968;SHT30;63523;51.880;12.630;2023-05-14T03:15:31;12.46;74.41
74968;SHT30;63523;51.880;12.630;2023-05-14T03:17:57;12.48;74.85
74968;SHT30;63523;51.880;12.630;2023-05-14T03:20:23;12.50;75.38
74968;SHT30;63523;51.880;12.630;2023-05-14T03:22:50;12.48;75.48
74968;SHT30;63523;51.880;12.630;2023-05-14T03:25:15;12.42;75.15
74968;SHT30;63523;51.880;12.630;2023-05-14T03:27:44;12.43;74.25
74968;SHT30;63523;51.880;12.630;2023-05-14T03:30:10;12.46;73.12
74968;SHT30;63523;51.880;12.630;2023-05-14T03:32:36;12.52;72.40
74968;SHT30;63523;51.880;12.630;2023-05-14T03:35:01;12.63;72.76
74968;SHT30;63523;51.880;12.630;2023-05-14T03:37:26;12.70;71.75
74968;SHT30;63523;51.880;12.630;2023-05-14T03:39:52;12.84;69.84
74968;SHT30;63523;51.880;12.630;2023-05-14T03:42:17;12.98;68.58
74968;SHT30;63523;51.880;12.630;2023-05-14T03:44:42;13.16;68.00
74968;SHT30;63523;51.880;12.630;2023-05-14T03:47:07;13.29;67.11
74968;SHT30;63523;51.880;12.630;2023-05-14T03:49:33;13.50;65.62
74968;SHT30;63523;51.880;12.630;2023-05-14T03:51:58;13.66;64.21
74968;SHT30;63523;51.880;12.630;2023-05-14T03:54:24;13.81;63.21
74968;SHT30;63523;51.880;12.630;2023-05-14T03:56:50;13.84;63.35
74968;SHT30;63523;51.880;12.630;2023-05-14T03:59:15;13.91;62.79
74968;SHT30;63523;51.880;12.630;2023-05-14T04:01:40;13.98;62.21
74968;SHT30;63523;51.880;12.630;2023-05-14T04:04:06;13.97;62.64
74968;SHT30;63523;51.880;12.630;2023-05-14T04:06:32;13.98;62.51
74968;SHT30;63523;51.880;12.630;2023-05-14T04:08:57;13.87;63.51
74968;SHT30;63523;51.880;12.630;2023-05-14T04:11:22;13.83;63.47
74968;SHT30;63523;51.880;12.630;2023-05-14T04:13:48;13.80;63.81
74968;SHT30;63523;51.880;12.630;2023-05-14T04:16:13;13.78;64.14
74968;SHT30;63523;51.880;12.630;2023-05-14T04:18:39;13.76;64.46
74968;SHT30;63523;51.880;12.630;2023-05-14T04:21:04;13.80;64.92
74968;SHT30;63523;51.880;12.630;2023-05-14T04:23:29;13.86;63.86
74968;SHT30;63523;51.880;12.630;2023-05-14T04:25:56;13.87;63.82
74968;SHT30;63523;51.880;12.630;2023-05-14T04:28:21;13.95;64.02
74968;SHT30;63523;51.880;12.630;2023-05-14T04:30:47;14.00;63.75
74968;SHT30;63523;51.880;12.630;2023-05-14T04:33:12;14.11;63.60
74968;SHT30;63523;51.880;12.630;2023-05-14T04:35:38;14.14;63.99
74968;SHT30;63523;51.880;12.630;2023-05-14T04:38:03;14.12;64.04
74968;SHT30;63523;51.880;12.630;2023-05-14T04:40:28;14.20;63.98
74968;SHT30;63523;51.880;12.630;2023-05-14T04:42:55;14.22;64.83
74968;SHT30;63523;51.880;12.630;2023-05-14T04:45:20;14.29;64.89
74968;SHT30;63523;51.880;12.630;2023-05-14T04:47:45;14.32;65.09
74968;SHT30;63523;51.880;12.630;2023-05-14T04:50:11;14.38;64.57
74968;SHT30;63523;51.880;12.630;2023-05-14T04:52:37;14.45;63.80
74968;SHT30;63523;51.880;12.630;2023-05-14T04:55:02;14.50;63.17
74968;SHT30;63523;51.880;12.630;2023-05-14T04:57:27;14.50;63.18
74968;SHT30;63523;51.880;12.630;2023-05-14T04:59:53;14.56;63.59
74968;SHT30;63523;51.880;12.630;2023-05-14T05:02:18;14.62;62.37
74968;SHT30;63523;51.880;12.630;2023-05-14T05:04:43;14.69;62.23
74968;SHT30;63523;51.880;12.630;2023-05-14T05:07:09;14.74;62.06
74968;SHT30;63523;51.880;12.630;2023-05-14T05:09:34;14.80;62.18
74968;SHT30;63523;51.880;12.630;2023-05-14T05:11:59;14.83;62.35
74968;SHT30;63523;51.880;12.630;2023-05-14T05:14:26;14.87;62.32
74968;SHT30;63523;51.880;12.630;2023-05-14T05:16:51;14.90;62.41
74968;SHT30;63523;51.880;12.630;2023-05-14T05:19:16;14.98;62.52
74968;SHT30;63523;51.880;12.630;2023-05-14T05:21:42;15.02;62.42
74968;SHT30;63523;51.880;12.630;2023-05-14T05:24:07;15.12;61.76
74968;SHT30;63523;51.880;12.630;2023-05-14T05:26:32;15.27;62.15
74968;SHT30;63523;51.880;12.630;2023-05-14T05:29:00;15.40;61.14
74968;SHT30;63523;51.880;12.630;2023-05-14T05:31:26;15.55;60.41
74968;SHT30;63523;51.880;12.630;2023-05-14T05:33:51;15.63;60.91
74968;SHT30;63523;51.880;12.630;2023-05-14T05:36:16;15.71;60.42
74968;SHT30;63523;51.880;12.630;2023-05-14T05:38:42;15.90;59.71
74968;SHT30;63523;51.880;12.630;2023-05-14T05:41:07;15.98;58.81
74968;SHT30;63523;51.880;12.630;2023-05-14T05:43:32;16.08;58.30
74968;SHT30;63523;51.880;12.630;2023-05-14T05:45:59;16.17;58.64
74968;SHT30;63523;51.880;12.630;2023-05-14T05:48:24;16.28;58.11
74968;SHT30;63523;51.880;12.630;2023-05-14T05:50:50;16.41;58.86
74968;SHT30;63523;51.880;12.630;2023-05-14T05:53:15;16.51;59.09
74968;SHT30;63523;51.880;12.630;2023-05-14T05:55:41;16.65;58.11
74968;SHT30;63523;51.880;12.630;2023-05-14T05:58:06;16.67;58.56
74968;SHT30;63523;51.880;12.630;2023-05-14T06:00:31;16.72;59.25
74968;SHT30;63523;51.880;12.630;2023-05-14T06:02:57;16.76;57.64
74968;SHT30;63523;51.880;12.630;2023-05-14T06:05:22;16.91;57.09
74968;SHT30;63523;51.880;12.630;2023-05-14T06:07:47;17.00;56.76
74968;SHT30;63523;51.880;12.630;2023-05-14T06:10:13;17.03;57.51
74968;SHT30;63523;51.880;12.630;2023-05-14T06:12:38;17.11;57.24
74968;SHT30;63523;51.880;12.630;2023-05-14T06:15:04;17.35;54.44
74968;SHT30;63523;51.880;12.630;2023-05-14T06:17:30;17.34;55.18
74968;SHT30;63523;51.880;12.630;2023-05-14T06:19:55;17.40;54.77
74968;SHT30;63523;51.880;12.630;2023-05-14T06:22:21;17.40;54.30
74968;SHT30;63523;51.880;12.630;2023-05-14T06:24:46;17.47;54.86
74968;SHT30;63523;51.880;12.630;2023-05-14T06:27:12;17.62;53.52
74968;SHT30;63523;51.880;12.630;2023-05-14T06:29:37;17.69;53.05
74968;SHT30;63523;51.880;12.630;2023-05-14T06:32:03;17.69;54.17
74968;SHT30;63523;51.880;12.630;2023-05-14T06:34:31;17.87;51.96
74968;SHT30;63523;51.880;12.630;2023-05-14T06:36:56;17.94;52.28
74968;SHT30;63523;51.880;12.630;2023-05-14T06:40:23;18.00;52.67
74968;SHT30;63523;51.880;12.630;2023-05-14T06:42:51;18.11;51.50
74968;SHT30;63523;51.880;12.630;2023-05-14T06:48:55;18.07;52.48
74968;SHT30;63523;51.880;12.630;2023-05-14T06:55:09;18.17;52.87
74968;SHT30;63523;51.880;12.630;2023-05-14T06:57:47;18.19;53.64
74968;SHT30;63523;51.880;12.630;2023-05-14T07:00:20;18.25;52.77
74968;SHT30;63523;51.880;12.630;2023-05-14T07:02:48;18.41;51.61
74968;SHT30;63523;51.880;12.630;2023-05-14T07:05:13;18.48;50.71
74968;SHT30;63523;51.880;12.630;2023-05-14T07:07:38;18.46;50.50
74968;SHT30;63523;51.880;12.630;2023-05-14T07:10:04;18.49;52.27
74968;SHT30;63523;51.880;12.630;2023-05-14T07:12:30;18.64;52.31
74968;SHT30;63523;51.880;12.630;2023-05-14T07:14:55;18.81;52.03
74968;SHT30;63523;51.880;12.630;2023-05-14T07:17:21;18.89;51.30
74968;SHT30;63523;51.880;12.630;2023-05-14T07:19:51;19.06;50.01
74968;SHT30;63523;51.880;12.630;2023-05-14T07:22:19;19.03;50.38
74968;SHT30;63523;51.880;12.630;2023-05-14T07:24:44;19.28;48.59
74968;SHT30;63523;51.880;12.630;2023-05-14T07:27:10;19.38;48.40
74968;SHT30;63523;51.880;12.630;2023-05-14T07:29:36;19.31;48.95
74968;SHT30;63523;51.880;12.630;2023-05-14T07:32:02;19.51;45.23
74968;SHT30;63523;51.880;12.630;2023-05-14T07:34:27;19.45;47.27
74968;SHT30;63523;51.880;12.630;2023-05-14T07:36:52;19.48;48.57
74968;SHT30;63523;51.880;12.630;2023-05-14T07:39:17;19.48;49.27
74968;SHT30;63523;51.880;12.630;2023-05-14T07:41:43;19.52;48.18
74968;SHT30;63523;51.880;12.630;2023-05-14T07:44:08;19.52;47.47
74968;SHT30;63523;51.880;12.630;2023-05-14T07:46:35;19.55;47.01
74968;SHT30;63523;51.880;12.630;2023-05-14T07:49:00;19.45;47.02
74968;SHT30;63523;51.880;12.630;2023-05-14T07:51:26;19.55;48.95
74968;SHT30;63523;51.880;12.630;2023-05-14T07:54:00;19.45;46.56
74968;SHT30;63523;51.880;12.630;2023-05-14T07:56:25;19.51;47.27
74968;SHT30;63523;51.880;12.630;2023-05-14T07:58:50;19.67;43.37
74968;SHT30;63523;51.880;12.630;2023-05-14T08:01:17;19.72;43.74
74968;SHT30;63523;51.880;12.630;2023-05-14T08:03:42;20.08;42.67
74968;SHT30;63523;51.880;12.630;2023-05-14T08:06:08;20.36;40.48
74968;SHT30;63523;51.880;12.630;2023-05-14T08:08:36;20.36;38.73
74968;SHT30;63523;51.880;12.630;2023-05-14T08:11:02;20.39;40.32
74968;SHT30;63523;51.880;12.630;2023-05-14T08:13:27;20.46;39.81
74968;SHT30;63523;51.880;12.630;2023-05-14T08:15:54;20.53;40.09
74968;SHT30;63523;51.880;12.630;2023-05-14T08:18:20;20.55;42.19
74968;SHT30;63523;51.880;12.630;2023-05-14T08:20:45;20.66;41.63
74968;SHT30;63523;51.880;12.630;2023-05-14T08:23:11;20.72;41.57
74968;SHT30;63523;51.880;12.630;2023-05-14T08:25:36;20.86;41.17
74968;SHT30;63523;51.880;12.630;2023-05-14T08:28:01;21.04;40.34
74968;SHT30;63523;51.880;12.630;2023-05-14T08:30:27;21.12;38.25
74968;SHT30;63523;51.880;12.630;2023-05-14T08:53:16;21.73;38.78
74968;SHT30;63523;51.880;12.630;2023-05-14T08:55:41;21.85;36.60
74968;SHT30;63523;51.880;12.630;2023-05-14T08:58:07;21.82;35.53
74968;SHT30;63523;51.880;12.630;2023-05-14T09:00:33;21.79;35.43
74968;SHT30;63523;51.880;12.630;2023-05-14T09:02:59;21.67;36.09
74968;SHT30;63523;51.880;12.630;2023-05-14T09:05:24;21.75;37.45
74968;SHT30;63523;51.880;12.630;2023-05-14T09:07:50;21.66;37.15
74968;SHT30;63523;51.880;12.630;2023-05-14T09:10:16;21.58;37.08
74968;SHT30;63523;51.880;12.630;2023-05-14T09:12:41;21.72;37.58
74968;SHT30;63523;51.880;12.630;2023-05-14T09:15:07;21.94;36.91
74968;SHT30;63523;51.880;12.630;2023-05-14T09:17:32;22.13;36.47
74968;SHT30;63523;51.880;12.630;2023-05-14T09:19:58;22.20;36.27
74968;SHT30;63523;51.880;12.630;2023-05-14T09:22:23;22.15;36.54
74968;SHT30;63523;51.880;12.630;2023-05-14T09:25:04;22.34;34.57
74968;SHT30;63523;51.880;12.630;2023-05-14T09:27:31;22.44;33.75
74968;SHT30;63523;51.880;12.630;2023-05-14T09:30:10;22.38;34.06
74968;SHT30;63523;51.880;12.630;2023-05-14T09:32:40;22.17;34.92
74968;SHT30;63523;51.880;12.630;2023-05-14T09:35:12;21.98;35.38
74968;SHT30;63523;51.880;12.630;2023-05-14T09:37:40;21.75;33.76
74968;SHT30;63523;51.880;12.630;2023-05-14T09:40:07;21.73;36.77
74968;SHT30;63523;51.880;12.630;2023-05-14T09:42:36;21.96;34.47
74968;SHT30;63523;51.880;12.630;2023-05-14T09:45:01;22.13;35.94
74968;SHT30;63523;51.880;12.630;2023-05-14T09:47:28;22.18;36.70
74968;SHT30;63523;51.880;12.630;2023-05-14T09:49:54;22.22;36.37
74968;SHT30;63523;51.880;12.630;2023-05-14T09:52:19;22.49;36.34
74968;SHT30;63523;51.880;12.630;2023-05-14T09:54:45;22.76;36.04
74968;SHT30;63523;51.880;12.630;2023-05-14T09:57:11;23.06;35.36
74968;SHT30;63523;51.880;12.630;2023-05-14T09:59:36;23.15;33.49
74968;SHT30;63523;51.880;12.630;2023-05-14T10:02:03;22.83;33.91
74968;SHT30;63523;51.880;12.630;2023-05-14T10:04:29;22.34;35.21
74968;SHT30;63523;51.880;12.630;2023-05-14T10:06:55;22.04;35.20
74968;SHT30;63523;51.880;12.630;2023-05-14T10:09:21;21.86;36.36
74968;SHT30;63523;51.880;12.630;2023-05-14T10:11:52;21.75;35.95
74968;SHT30;63523;51.880;12.630;2023-05-14T10:16:51;21.59;36.18
74968;SHT30;63523;51.880;12.630;2023-05-14T10:19:19;21.52;35.89
74968;SHT30;63523;51.880;12.630;2023-05-14T10:21:47;21.48;35.62
74968;SHT30;63523;51.880;12.630;2023-05-14T10:24:18;21.48;36.02
74968;SHT30;63523;51.880;12.630;2023-05-14T10:26:44;21.38;35.70
74968;SHT30;63523;51.880;12.630;2023-05-14T10:29:09;21.21;37.04
74968;SHT30;63523;51.880;12.630;2023-05-14T10:31:52;21.24;35.99
74968;SHT30;63523;51.880;12.630;2023-05-14T10:34:36;21.25;35.02
74968;SHT30;63523;51.880;12.630;2023-05-14T10:37:03;21.07;35.21
74968;SHT30;63523;51.880;12.630;2023-05-14T10:42:07;20.89;36.47
74968;SHT30;63523;51.880;12.630;2023-05-14T10:44:34;20.80;35.66
74968;SHT30;63523;51.880;12.630;2023-05-14T10:47:01;20.73;35.95
74968;SHT30;63523;51.880;12.630;2023-05-14T10:49:26;20.65;36.45
74968;SHT30;63523;51.880;12.630;2023-05-14T10:51:52;20.69;36.49
74968;SHT30;63523;51.880;12.630;2023-05-14T10:54:17;20.97;37.22
74968;SHT30;63523;51.880;12.630;2023-05-14T10:56:45;21.96;35.36
74968;SHT30;63523;51.880;12.630;2023-05-14T10:59:10;22.87;33.11
74968;SHT30;63523;51.880;12.630;2023-05-14T11:01:39;23.38;32.80
74968;SHT30;63523;51.880;12.630;2023-05-14T11:04:04;23.69;32.53
74968;SHT30;63523;51.880;12.630;2023-05-14T11:06:30;24.18;31.66
74968;SHT30;63523;51.880;12.630;2023-05-14T11:08:57;24.09;30.81
74968;SHT30;63523;51.880;12.630;2023-05-14T11:11:25;23.99;31.42
74968;SHT30;63523;51.880;12.630;2023-05-14T11:13:52;23.73;31.95
74968;SHT30;63523;51.880;12.630;2023-05-14T11:16:20;23.41;32.67
74968;SHT30;63523;51.880;12.630;2023-05-14T11:18:47;23.18;33.29
74968;SHT30;63523;51.880;12.630;2023-05-14T11:21:16;22.96;33.77
74968;SHT30;63523;51.880;12.630;2023-05-14T11:23:45;23.02;32.34
74968;SHT30;63523;51.880;12.630;2023-05-14T11:26:11;23.66;32.50
74968;SHT30;63523;51.880;12.630;2023-05-14T11:28:37;24.22;31.93
74968;SHT30;63523;51.880;12.630;2023-05-14T11:31:02;24.34;32.64
74968;SHT30;63523;51.880;12.630;2023-05-14T11:33:30;24.34;31.37
74968;SHT30;63523;51.880;12.630;2023-05-14T11:35:55;23.97;31.52
74968;SHT30;63523;51.880;12.630;2023-05-14T11:38:20;23.76;31.15
74968;SHT30;63523;51.880;12.630;2023-05-14T11:40:53;23.73;32.21
74968;SHT30;63523;51.880;12.630;2023-05-14T11:43:19;23.72;32.51
74968;SHT30;63523;51.880;12.630;2023-05-14T11:45:49;23.51;32.42
74968;SHT30;63523;51.880;12.630;2023-05-14T11:48:15;23.37;31.83
74968;SHT30;63523;51.880;12.630;2023-05-14T11:50:44;23.07;33.10
74968;SHT30;63523;51.880;12.630;2023-05-14T11:53:09;22.87;33.13
74968;SHT30;63523;51.880;12.630;2023-05-14T11:55:35;22.63;34.29
74968;SHT30;63523;51.880;12.630;2023-05-14T11:58:00;22.65;35.61
74968;SHT30;63523;51.880;12.630;2023-05-14T12:00:26;22.70;33.05
74968;SHT30;63523;51.880;12.630;2023-05-14T12:02:51;22.75;34.06
74968;SHT30;63523;51.880;12.630;2023-05-14T12:05:17;22.85;33.61
74968;SHT30;63523;51.880;12.630;2023-05-14T12:07:46;22.95;33.00
74968;SHT30;63523;51.880;12.630;2023-05-14T12:10:11;22.96;33.22
74968;SHT30;63523;51.880;12.630;2023-05-14T12:12:37;22.99;32.94
74968;SHT30;63523;51.880;12.630;2023-05-14T12:15:10;23.07;33.55
74968;SHT30;63523;51.880;12.630;2023-05-14T12:17:36;22.95;34.75
74968;SHT30;63523;51.880;12.630;2023-05-14T12:20:02;22.92;34.82
74968;SHT30;63523;51.880;12.630;2023-05-14T12:22:28;22.93;34.19
74968;SHT30;63523;51.880;12.630;2023-05-14T12:24:54;23.00;35.24
74968;SHT30;63523;51.880;12.630;2023-05-14T12:27:23;22.92;34.59
74968;SHT30;63523;51.880;12.630;2023-05-14T12:29:50;23.02;34.29
74968;SHT30;63523;51.880;12.630;2023-05-14T12:32:24;22.99;34.66
74968;SHT30;63523;51.880;12.630;2023-05-14T12:34:49;22.96;37.30
74968;SHT30;63523;51.880;12.630;2023-05-14T12:37:15;23.02;35.76
74968;SHT30;63523;51.880;12.630;2023-05-14T12:39:40;23.00;35.56
74968;SHT30;63523;51.880;12.630;2023-05-14T12:42:05;22.95;34.05
74968;SHT30;63523;51.880;12.630;2023-05-14T12:44:30;22.80;35.14
74968;SHT30;63523;51.880;12.630;2023-05-14T12:46:56;22.72;36.13
74968;SHT30;63523;51.880;12.630;2023-05-14T12:49:21;23.02;36.48
74968;SHT30;63523;51.880;12.630;2023-05-14T12:51:47;23.32;36.59
74968;SHT30;63523;51.880;12.630;2023-05-14T12:54:12;23.45;33.82
74968;SHT30;63523;51.880;12.630;2023-05-14T12:56:39;23.32;34.19
74968;SHT30;63523;51.880;12.630;2023-05-14T12:59:05;23.25;35.73
74968;SHT30;63523;51.880;12.630;2023-05-14T13:01:30;23.14;34.14
74968;SHT30;63523;51.880;12.630;2023-05-14T13:03:55;23.04;36.01
74968;SHT30;63523;51.880;12.630;2023-05-14T13:06:22;23.03;35.06
74968;SHT30;63523;51.880;12.630;2023-05-14T13:08:47;22.89;35.55
74968;SHT30;63523;51.880;12.630;2023-05-14T13:11:13;22.63;37.05
74968;SHT30;63523;51.880;12.630;2023-05-14T13:13:38;22.56;37.77
74968;SHT30;63523;51.880;12.630;2023-05-14T13:16:04;22.56;37.57
74968;SHT30;63523;51.880;12.630;2023-05-14T13:18:29;22.53;37.85
74968;SHT30;63523;51.880;12.630;2023-05-14T13:20:54;22.47;35.92
74968;SHT30;63523;51.880;12.630;2023-05-14T13:23:20;22.35;36.50
74968;SHT30;63523;51.880;12.630;2023-05-14T13:25:45;22.48;38.56
74968;SHT30;63523;51.880;12.630;2023-05-14T13:28:10;22.60;38.51
74968;SHT30;63523;51.880;12.630;2023-05-14T13:30:36;22.60;36.88
74968;SHT30;63523;51.880;12.630;2023-05-14T13:33:01;22.63;36.35
74968;SHT30;63523;51.880;12.630;2023-05-14T13:35:26;22.70;38.47
74968;SHT30;63523;51.880;12.630;2023-05-14T13:37:51;22.70;37.64
74968;SHT30;63523;51.880;12.630;2023-05-14T13:40:17;22.77;38.49
74968;SHT30;63523;51.880;12.630;2023-05-14T13:42:42;22.82;36.38
74968;SHT30;63523;51.880;12.630;2023-05-14T13:45:08;22.82;36.54
74968;SHT30;63523;51.880;12.630;2023-05-14T13:47:33;22.93;38.34
74968;SHT30;63523;51.880;12.630;2023-05-14T13:49:59;22.97;37.33
74968;SHT30;63523;51.880;12.630;2023-05-14T13:52:24;22.82;38.25
74968;SHT30;63523;51.880;12.630;2023-05-14T13:54:49;22.68;37.57
74968;SHT30;63523;51.880;12.630;2023-05-14T13:57:15;22.59;36.55
74968;SHT30;63523;51.880;12.630;2023-05-14T13:59:40;22.51;37.13
74968;SHT30;63523;51.880;12.630;2023-05-14T14:02:06;22.65;38.18
74968;SHT30;63523;51.880;12.630;2023-05-14T14:04:31;22.89;38.43
74968;SHT30;63523;51.880;12.630;2023-05-14T14:06:57;23.06;37.41
74968;SHT30;63523;51.880;12.630;2023-05-14T14:09:23;23.08;37.03
74968;SHT30;63523;51.880;12.630;2023-05-14T14:14:17;23.03;37.23
74968;SHT30;63523;51.880;12.630;2023-05-14T14:16:43;22.85;37.73
74968;SHT30;63523;51.880;12.630;2023-05-14T14:19:08;22.75;37.75
74968;SHT30;63523;51.880;12.630;2023-05-14T14:21:34;22.65;38.55
74968;SHT30;63523;51.880;12.630;2023-05-14T14:24:00;22.52;37.52
74968;SHT30;63523;51.880;12.630;2023-05-14T14:26:26;22.42;39.21
74968;SHT30;63523;51.880;12.630;2023-05-14T14:28:52;22.52;37.50
74968;SHT30;63523;51.880;12.630;2023-05-14T14:31:17;22.52;37.86
74968;SHT30;63523;51.880;12.630;2023-05-14T14:33:43;22.58;38.65
74968;SHT30;63523;51.880;12.630;2023-05-14T14:36:08;22.62;37.12
74968;SHT30;63523;51.880;12.630;2023-05-14T14:38:33;22.56;37.43
74968;SHT30;63523;51.880;12.630;2023-05-14T14:40:59;22.59;37.31
74968;SHT30;63523;51.880;12.630;2023-05-14T14:43:27;22.53;37.60
74968;SHT30;63523;51.880;12.630;2023-05-14T14:45:52;22.49;38.96
74968;SHT30;63523;51.880;12.630;2023-05-14T14:48:22;22.51;36.93
74968;SHT30;63523;51.880;12.630;2023-05-14T14:50:48;22.31;37.62
74968;SHT30;63523;51.880;12.630;2023-05-14T14:53:14;22.22;37.33
74968;SHT30;63523;51.880;12.630;2023-05-14T14:55:39;22.22;37.48
74968;SHT30;63523;51.880;12.630;2023-05-14T14:58:04;22.15;37.59
74968;SHT30;63523;51.880;12.630;2023-05-14T15:00:30;22.01;38.04
74968;SHT30;63523;51.880;12.630;2023-05-14T15:02:55;21.89;37.79
74968;SHT30;63523;51.880;12.630;2023-05-14T15:05:20;21.78;37.92
74968;SHT30;63523;51.880;12.630;2023-05-14T15:07:46;21.67;38.10
74968;SHT30;63523;51.880;12.630;2023-05-14T15:10:11;21.62;38.56
74968;SHT30;63523;51.880;12.630;2023-05-14T15:12:36;21.52;39.02
74968;SHT30;63523;51.880;12.630;2023-05-14T15:15:02;21.43;39.75
74968;SHT30;63523;51.880;12.630;2023-05-14T15:17:27;21.37;40.29
74968;SHT30;63523;51.880;12.630;2023-05-14T15:19:52;21.27;40.08
74968;SHT30;63523;51.880;12.630;2023-05-14T15:22:17;21.21;39.71
74968;SHT30;63523;51.880;12.630;2023-05-14T15:24:43;21.21;40.67
74968;SHT30;63523;51.880;12.630;2023-05-14T15:27:08;21.20;40.74
74968;SHT30;63523;51.880;12.630;2023-05-14T15:29:33;21.17;41.26
74968;SHT30;63523;51.880;12.630;2023-05-14T15:31:58;21.12;40.87
74968;SHT30;63523;51.880;12.630;2023-05-14T15:34:24;21.15;40.81
74968;SHT30;63523;51.880;12.630;2023-05-14T15:36:50;21.14;40.59
74968;SHT30;63523;51.880;12.630;2023-05-14T15:39:15;21.15;41.78
74968;SHT30;63523;51.880;12.630;2023-05-14T15:41:40;21.18;42.06
74968;SHT30;63523;51.880;12.630;2023-05-14T15:44:06;21.23;43.11
74968;SHT30;63523;51.880;12.630;2023-05-14T15:46:31;21.21;42.71